createdAt,value
2023-05-10T00:01:33.658Z,8.40
2023-05-10T00:04:00.442Z,8.90
2023-05-10T00:06:27.241Z,7.90
2023-05-10T00:08:53.910Z,8.50
2023-05-10T00:11:23.006Z,8.50
2023-05-10T00:13:50.470Z,8.33
2023-05-10T00:16:17.213Z,7.97
2023-05-10T00:18:43.988Z,7.20
2023-05-10T00:21:10.891Z,6.13
2023-05-10T00:23:37.742Z,5.53
2023-05-10T00:26:04.597Z,4.70
2023-05-10T00:28:31.331Z,4.27
2023-05-10T00:30:58.082Z,4.13
2023-05-10T00:33:24.790Z,3.53
2023-05-10T00:35:51.676Z,3.20
2023-05-10T00:38:18.671Z,2.60
2023-05-10T00:40:45.419Z,2.83
2023-05-10T00:43:12.356Z,2.40
2023-05-10T00:45:41.165Z,2.30
2023-05-10T00:48:08.110Z,1.67
2023-05-10T00:50:35.179Z,1.87
2023-05-10T00:53:03.611Z,1.80
2023-05-10T00:55:31.135Z,1.90
2023-05-10T00:57:57.969Z,2.13
2023-05-10T01:00:24.799Z,1.60
2023-05-10T01:02:51.727Z,1.77
2023-05-10T01:05:18.731Z,1.90
2023-05-10T01:07:45.538Z,1.50
2023-05-10T01:10:12.606Z,1.80
2023-05-10T01:12:42.289Z,1.40
2023-05-10T01:15:12.148Z,1.60
2023-05-10T01:17:41.537Z,1.40
2023-05-10T01:20:10.322Z,1.73
2023-05-10T01:23:17.935Z,1.70
2023-05-10T01:26:14.200Z,1.90
2023-05-10T01:29:00.055Z,1.80
2023-05-10T01:31:32.939Z,1.60
2023-05-10T01:34:13.316Z,1.63
2023-05-10T01:37:04.319Z,1.60
2023-05-10T01:39:45.979Z,1.60
2023-05-10T01:42:18.792Z,1.70
2023-05-10T01:45:14.550Z,1.80
2023-05-10T01:48:08.512Z,2.00
2023-05-10T01:50:38.643Z,1.90
2023-05-10T01:53:09.106Z,1.97
2023-05-10T01:55:44.207Z,2.30
2023-05-10T01:58:15.247Z,1.80
2023-05-10T02:00:45.714Z,1.80
2023-05-10T02:03:15.042Z,1.80
2023-05-10T02:05:45.684Z,1.63
2023-05-10T02:08:14.352Z,2.40
2023-05-10T02:10:42.076Z,2.23
2023-05-10T02:13:10.170Z,1.80
2023-05-10T02:15:39.788Z,1.90
2023-05-10T02:18:07.497Z,2.07
2023-05-10T02:20:36.146Z,2.33
2023-05-10T02:23:04.517Z,2.27
2023-05-10T02:25:33.171Z,2.03
2023-05-10T02:28:02.757Z,2.23
2023-05-10T02:30:32.466Z,2.00
2023-05-10T02:33:00.639Z,1.80
2023-05-10T02:35:29.217Z,1.80
2023-05-10T02:37:57.730Z,2.10
2023-05-10T02:40:28.649Z,2.27
2023-05-10T02:42:58.080Z,2.13
2023-05-10T02:45:29.286Z,1.90
2023-05-10T02:47:56.998Z,2.17
2023-05-10T02:50:25.743Z,1.93
2023-05-10T02:52:55.388Z,2.10
2023-05-10T02:55:33.419Z,2.20
2023-05-10T02:58:02.174Z,2.20
2023-05-10T03:00:29.229Z,2.30
2023-05-10T03:02:56.099Z,2.40
2023-05-10T03:05:22.928Z,2.70
2023-05-10T03:07:49.745Z,2.07
2023-05-10T03:10:16.988Z,2.43
2023-05-10T03:13:11.924Z,2.20
2023-05-10T03:16:04.821Z,2.37
2023-05-10T03:19:07.778Z,2.30
2023-05-10T03:21:39.181Z,2.70
2023-05-10T03:24:09.250Z,2.03
2023-05-10T03:26:37.596Z,2.10
2023-05-10T03:29:06.150Z,1.93
2023-05-10T03:31:33.350Z,2.23
2023-05-10T03:34:00.203Z,2.77
2023-05-10T03:36:27.235Z,2.03
2023-05-10T03:38:54.133Z,1.90
2023-05-10T03:41:21.837Z,2.40
2023-05-10T03:43:48.572Z,1.80
2023-05-10T03:46:15.298Z,2.00
2023-05-10T03:48:42.126Z,2.30
2023-05-10T03:51:08.907Z,1.87
2023-05-10T03:53:35.641Z,1.93
2023-05-10T03:56:02.431Z,1.83
2023-05-10T03:58:29.282Z,2.43
2023-05-10T04:00:56.480Z,2.63
2023-05-10T04:03:23.284Z,1.80
2023-05-10T04:05:50.155Z,1.90
2023-05-10T04:08:17.628Z,1.47
2023-05-10T04:10:44.696Z,1.40
2023-05-10T04:13:12.423Z,1.50
2023-05-10T04:15:39.180Z,1.30
2023-05-10T04:18:09.020Z,1.10
2023-05-10T04:20:35.846Z,1.10
2023-05-10T04:23:02.771Z,1.00
2023-05-10T04:25:29.515Z,0.80
2023-05-10T04:27:56.211Z,1.00
2023-05-10T04:30:22.917Z,0.90
2023-05-10T04:32:49.748Z,1.00
2023-05-10T04:35:16.625Z,0.77
2023-05-10T04:37:44.344Z,0.83
2023-05-10T04:40:11.560Z,0.70
2023-05-10T04:42:38.254Z,0.70
2023-05-10T04:45:05.473Z,0.80
2023-05-10T04:47:32.252Z,0.50
2023-05-10T04:49:59.125Z,0.80
2023-05-10T04:52:25.828Z,0.70
2023-05-10T04:54:52.675Z,0.70
2023-05-10T04:57:19.465Z,1.10
2023-05-10T04:59:46.856Z,0.60
2023-05-10T05:02:14.749Z,0.60
2023-05-10T05:04:41.557Z,0.63
2023-05-10T05:07:08.602Z,2.70
2023-05-10T05:09:35.787Z,0.63
2023-05-10T05:12:02.679Z,0.60
2023-05-10T05:14:29.389Z,0.70
2023-05-10T05:16:57.010Z,0.60
2023-05-10T05:19:24.063Z,0.70
2023-05-10T05:21:50.979Z,0.60
2023-05-10T05:24:17.792Z,0.70
2023-05-10T05:26:44.553Z,0.50
2023-05-10T05:29:11.261Z,0.77
2023-05-10T05:31:38.062Z,0.73
2023-05-10T05:34:04.892Z,1.03
2023-05-10T05:36:32.597Z,1.00
2023-05-10T05:38:59.362Z,0.77
2023-05-10T05:41:26.118Z,0.70
2023-05-10T05:43:52.818Z,1.27
2023-05-10T05:46:19.556Z,0.80
2023-05-10T05:48:46.348Z,0.70
2023-05-10T05:51:13.109Z,0.80
2023-05-10T05:53:39.818Z,1.00
2023-05-10T05:56:06.863Z,0.60
2023-05-10T05:58:33.663Z,0.97
2023-05-10T06:01:00.595Z,1.00
2023-05-10T06:03:27.443Z,0.80
2023-05-10T06:05:54.269Z,0.70
2023-05-10T06:08:21.594Z,1.40
2023-05-10T06:10:48.332Z,0.80
2023-05-10T06:13:15.186Z,1.07
2023-05-10T06:15:42.188Z,1.10
2023-05-10T06:18:09.100Z,1.10
2023-05-10T06:20:36.074Z,1.00
2023-05-10T06:23:02.949Z,1.10
2023-05-10T06:25:29.735Z,1.17
2023-05-10T06:27:59.316Z,0.90
2023-05-10T06:30:29.918Z,0.80
2023-05-10T06:32:57.474Z,1.00
2023-05-10T06:35:24.564Z,1.10
2023-05-10T06:37:52.189Z,1.00
2023-05-10T06:40:19.532Z,0.90
2023-05-10T06:42:47.205Z,1.00
2023-05-10T06:45:15.806Z,1.00
2023-05-10T06:47:43.398Z,1.00
2023-05-10T06:50:10.833Z,0.97
2023-05-10T06:52:37.843Z,1.07
2023-05-10T06:55:05.584Z,1.00
2023-05-10T06:57:33.025Z,1.10
2023-05-10T07:00:00.630Z,0.90
2023-05-10T07:02:27.721Z,0.90
2023-05-10T07:04:54.640Z,0.97
2023-05-10T07:07:21.506Z,1.10
2023-05-10T07:09:48.283Z,1.10
2023-05-10T07:12:15.889Z,1.17
2023-05-10T07:14:43.413Z,1.03
2023-05-10T07:17:11.082Z,1.20
2023-05-10T07:19:38.065Z,0.80
2023-05-10T07:22:04.934Z,1.20
2023-05-10T07:24:32.718Z,1.10
2023-05-10T07:26:59.433Z,1.10
2023-05-10T07:29:26.449Z,1.07
2023-05-10T07:31:53.376Z,1.07
2023-05-10T07:34:20.201Z,1.30
2023-05-10T07:36:47.056Z,0.90
2023-05-10T07:39:18.699Z,0.90
2023-05-10T07:41:53.146Z,1.10
2023-05-10T07:44:21.497Z,1.03
2023-05-10T07:46:49.699Z,0.97
2023-05-10T07:49:17.664Z,1.30
2023-05-10T07:51:44.596Z,1.30
2023-05-10T07:54:11.452Z,1.20
2023-05-10T07:56:38.198Z,1.10
2023-05-10T07:59:07.525Z,1.10
2023-05-10T08:01:35.992Z,0.97
2023-05-10T08:04:03.339Z,1.00
2023-05-10T08:06:31.404Z,1.00
2023-05-10T08:08:58.546Z,1.63
2023-05-10T08:11:26.182Z,1.10
2023-05-10T08:13:53.273Z,1.00
2023-05-10T08:16:20.718Z,1.10
2023-05-10T08:18:48.535Z,1.27
2023-05-10T08:21:16.111Z,1.17
2023-05-10T08:23:44.971Z,1.17
2023-05-10T08:26:12.332Z,1.13
2023-05-10T08:28:39.341Z,0.93
2023-05-10T08:31:06.799Z,1.10
2023-05-10T08:33:33.799Z,1.03
2023-05-10T08:36:00.753Z,1.27
2023-05-10T08:38:27.715Z,1.00
2023-05-10T08:41:00.199Z,1.00
2023-05-10T08:43:31.281Z,1.00
2023-05-10T08:46:01.832Z,1.20
2023-05-10T08:48:30.551Z,1.00
2023-05-10T08:51:00.764Z,1.10
2023-05-10T08:53:30.103Z,1.00
2023-05-10T08:55:57.012Z,1.20
2023-05-10T08:58:23.952Z,1.30
2023-05-10T09:00:53.907Z,1.30
2023-05-10T09:03:20.818Z,1.07
2023-05-10T09:05:48.067Z,1.20
2023-05-10T09:08:17.467Z,1.37
2023-05-10T09:10:49.212Z,1.40
2023-05-10T09:13:19.392Z,1.50
2023-05-10T09:15:46.801Z,1.70
2023-05-10T09:18:14.058Z,1.20
2023-05-10T09:20:41.529Z,1.13
2023-05-10T09:23:08.848Z,1.43
2023-05-10T09:25:36.268Z,1.00
2023-05-10T09:28:03.131Z,0.80
2023-05-10T09:30:31.870Z,1.00
2023-05-10T09:33:00.764Z,1.27
2023-05-10T09:35:30.227Z,0.90
2023-05-10T09:37:59.351Z,0.80
2023-05-10T09:40:28.015Z,0.97
2023-05-10T09:43:00.912Z,1.00
2023-05-10T09:45:29.643Z,1.10
2023-05-10T09:47:57.128Z,0.97
2023-05-10T09:50:24.532Z,0.90
2023-05-10T09:52:55.700Z,0.90
2023-05-10T09:55:27.682Z,1.00
2023-05-10T09:58:01.955Z,1.00
2023-05-10T10:00:29.504Z,1.30
2023-05-10T10:02:58.440Z,1.00
2023-05-10T10:05:31.435Z,1.07
2023-05-10T10:07:58.982Z,1.10
2023-05-10T10:10:27.011Z,1.27
2023-05-10T10:12:54.753Z,1.20
2023-05-10T10:15:22.970Z,1.00
2023-05-10T10:17:51.801Z,1.30
2023-05-10T10:20:20.602Z,0.90
2023-05-10T10:22:48.012Z,0.87
2023-05-10T10:25:17.131Z,0.90
2023-05-10T10:27:53.253Z,0.80
2023-05-10T10:30:38.823Z,0.90
2023-05-10T10:33:28.940Z,0.87
2023-05-10T10:35:59.103Z,1.03
2023-05-10T10:38:25.856Z,0.80
2023-05-10T10:41:32.336Z,0.93
2023-05-10T10:44:25.434Z,0.90
2023-05-10T10:47:19.921Z,1.00
2023-05-10T10:49:50.741Z,1.10
2023-05-10T10:52:35.732Z,1.10
2023-05-10T10:55:19.525Z,1.10
2023-05-10T10:57:47.723Z,1.07
2023-05-10T11:00:23.948Z,1.13
2023-05-10T11:02:52.860Z,1.10
2023-05-10T11:05:37.604Z,1.20
2023-05-10T11:08:10.553Z,1.23
2023-05-10T11:10:37.406Z,0.93
2023-05-10T11:13:09.932Z,1.10
2023-05-10T11:15:41.180Z,0.97
2023-05-10T11:18:19.773Z,0.90
2023-05-10T11:20:57.372Z,1.13
2023-05-10T11:23:24.907Z,1.27
2023-05-10T11:25:51.651Z,1.20
2023-05-10T11:28:20.815Z,1.57
2023-05-10T11:30:48.411Z,1.10
2023-05-10T11:33:19.428Z,1.13
2023-05-10T11:35:46.440Z,1.10
2023-05-10T11:38:14.500Z,1.00
2023-05-10T11:40:42.120Z,1.37
2023-05-10T11:43:12.060Z,0.90
2023-05-10T11:45:39.269Z,1.10
2023-05-10T11:48:06.309Z,1.10
2023-05-10T11:50:33.944Z,1.10
2023-05-10T11:53:00.779Z,1.30
2023-05-10T11:55:27.628Z,1.17
2023-05-10T11:57:55.765Z,1.40
2023-05-10T12:00:22.832Z,1.50
2023-05-10T12:02:50.142Z,1.10
2023-05-10T12:05:17.518Z,1.43
2023-05-10T12:07:44.649Z,1.03
2023-05-10T12:10:16.318Z,1.00
2023-05-10T12:12:49.270Z,1.40
2023-05-10T12:15:21.630Z,1.50
2023-05-10T12:17:49.240Z,1.27
2023-05-10T12:20:21.914Z,1.37
2023-05-10T12:22:52.466Z,1.27
2023-05-10T12:25:21.467Z,1.23
2023-05-10T12:28:01.914Z,1.03
2023-05-10T12:30:30.886Z,1.20
2023-05-10T12:33:09.849Z,1.17
2023-05-10T12:35:54.438Z,1.10
2023-05-10T12:38:40.896Z,1.03
2023-05-10T12:41:09.600Z,1.07
2023-05-10T12:43:37.880Z,0.70
2023-05-10T12:46:09.558Z,0.83
2023-05-10T12:48:37.668Z,0.80
2023-05-10T12:51:05.550Z,0.80
2023-05-10T12:53:32.876Z,0.60
2023-05-10T12:55:59.613Z,0.70
2023-05-10T12:58:35.133Z,0.87
2023-05-10T13:01:03.001Z,0.70
2023-05-10T13:03:29.832Z,1.20
2023-05-10T13:05:56.619Z,0.90
2023-05-10T13:08:23.558Z,1.10
2023-05-10T13:10:51.041Z,1.00
2023-05-10T13:13:18.945Z,0.97
2023-05-10T13:15:45.775Z,1.17
2023-05-10T13:18:12.617Z,0.80
2023-05-10T13:20:39.507Z,0.80
2023-05-10T13:23:06.247Z,0.83
2023-05-10T13:25:33.008Z,0.90
2023-05-10T13:27:59.779Z,1.10
2023-05-10T13:30:26.475Z,1.33
2023-05-10T13:32:53.259Z,1.40
2023-05-10T13:35:20.056Z,1.60
2023-05-10T13:37:46.858Z,1.50
2023-05-10T13:40:14.863Z,1.33
2023-05-10T13:42:42.133Z,1.60
2023-05-10T13:45:09.290Z,1.17
2023-05-10T13:47:36.473Z,1.10
2023-05-10T13:50:04.567Z,0.90
2023-05-10T13:52:31.431Z,0.70
2023-05-10T13:54:58.487Z,0.90
2023-05-10T13:57:25.357Z,0.80
2023-05-10T13:59:52.649Z,0.93
2023-05-10T14:02:19.412Z,0.90
2023-05-10T14:04:46.213Z,0.80
2023-05-10T14:07:12.987Z,0.93
2023-05-10T14:09:40.025Z,1.10
2023-05-10T14:12:06.895Z,1.33
2023-05-10T14:14:33.761Z,1.00
2023-05-10T14:17:00.563Z,1.10
2023-05-10T14:19:28.335Z,0.93
2023-05-10T14:21:55.106Z,1.20
2023-05-10T14:24:21.885Z,1.00
2023-05-10T14:26:48.581Z,1.50
2023-05-10T14:29:15.509Z,1.50
2023-05-10T14:31:42.413Z,1.30
2023-05-10T14:34:09.226Z,1.20
2023-05-10T14:36:35.955Z,1.57
2023-05-10T14:39:02.691Z,1.50
2023-05-10T14:41:29.474Z,1.10
2023-05-10T14:43:56.484Z,1.20
2023-05-10T14:46:23.236Z,1.10
2023-05-10T14:48:50.021Z,1.40
2023-05-10T14:51:17.312Z,1.30
2023-05-10T14:53:44.094Z,1.20
2023-05-10T14:56:10.875Z,1.37
2023-05-10T14:58:37.624Z,1.20
2023-05-10T15:01:04.830Z,1.13
2023-05-10T15:03:32.259Z,1.10
2023-05-10T15:05:59.628Z,1.10
2023-05-10T15:08:26.383Z,1.10
2023-05-10T15:10:53.349Z,1.20
2023-05-10T15:13:20.085Z,1.20
2023-05-10T15:15:46.912Z,1.00
2023-05-10T15:18:13.694Z,1.30
2023-05-10T15:20:40.386Z,1.10
2023-05-10T15:23:07.119Z,1.17
2023-05-10T15:25:36.051Z,1.10
2023-05-10T15:28:03.843Z,1.17
2023-05-10T15:30:30.821Z,1.50
2023-05-10T15:32:57.882Z,1.07
2023-05-10T15:35:24.897Z,1.33
2023-05-10T15:37:51.962Z,1.20
2023-05-10T15:40:18.782Z,1.10
2023-05-10T15:42:45.650Z,1.20
2023-05-10T15:45:12.745Z,1.20
2023-05-10T15:47:40.722Z,1.10
2023-05-10T15:50:08.257Z,1.20
2023-05-10T15:52:35.203Z,1.00
2023-05-10T15:55:02.296Z,1.20
2023-05-10T15:57:29.119Z,1.53
2023-05-10T15:59:56.583Z,1.50
2023-05-10T16:02:23.660Z,1.30
2023-05-10T16:04:50.926Z,1.10
2023-05-10T16:07:17.686Z,1.47
2023-05-10T16:09:44.526Z,1.30
2023-05-10T16:12:11.341Z,1.43
2023-05-10T16:14:38.033Z,1.10
2023-05-10T16:17:05.127Z,0.90
2023-05-10T16:19:32.207Z,1.40
2023-05-10T16:21:59.162Z,1.30
2023-05-10T16:24:26.521Z,1.00
2023-05-10T16:26:53.523Z,1.10
2023-05-10T16:29:20.326Z,1.00
2023-05-10T16:31:47.207Z,1.20
2023-05-10T16:34:13.967Z,1.20
2023-05-10T16:36:41.007Z,1.03
2023-05-10T16:39:09.485Z,1.20
2023-05-10T16:41:36.263Z,1.53
2023-05-10T16:44:03.887Z,1.47
2023-05-10T16:46:30.931Z,1.43
2023-05-10T16:48:59.971Z,1.23
2023-05-10T16:51:27.521Z,1.33
2023-05-10T16:53:54.257Z,1.50
2023-05-10T16:56:22.445Z,1.70
2023-05-10T16:58:52.360Z,1.60
2023-05-10T17:01:19.313Z,1.50
2023-05-10T17:03:46.243Z,1.60
2023-05-10T17:06:14.145Z,1.50
2023-05-10T17:08:40.891Z,1.47
2023-05-10T17:11:07.755Z,1.50
2023-05-10T17:13:34.501Z,1.60
2023-05-10T17:16:03.890Z,1.30
2023-05-10T17:18:31.423Z,1.80
2023-05-10T17:20:58.392Z,1.83
2023-05-10T17:23:25.133Z,1.60
2023-05-10T17:25:51.800Z,1.90
2023-05-10T17:28:18.512Z,2.00
2023-05-10T17:30:45.235Z,1.63
2023-05-10T17:33:12.041Z,1.97
2023-05-10T17:35:38.808Z,1.60
2023-05-10T17:38:05.597Z,2.13
2023-05-10T17:40:32.478Z,2.43
2023-05-10T17:42:59.162Z,1.90
2023-05-10T17:45:26.584Z,2.23
2023-05-10T17:47:53.407Z,1.70
2023-05-10T17:50:20.204Z,1.90
2023-05-10T17:52:46.937Z,1.80
2023-05-10T17:55:13.650Z,1.67
2023-05-10T17:57:40.552Z,1.70
2023-05-10T18:00:09.362Z,1.50
2023-05-10T18:02:39.516Z,1.67
2023-05-10T18:05:06.777Z,1.50
2023-05-10T18:07:33.631Z,1.60
2023-05-10T18:10:01.307Z,1.60
2023-05-10T18:12:28.165Z,1.70
2023-05-10T18:14:54.913Z,1.80
2023-05-10T18:17:21.720Z,1.80
2023-05-10T18:19:48.606Z,1.60
2023-05-10T18:22:15.377Z,1.77
2023-05-10T18:24:42.549Z,1.60
2023-05-10T18:27:09.716Z,1.50
2023-05-10T18:29:37.171Z,2.03
2023-05-10T18:32:04.067Z,1.60
2023-05-10T18:34:31.018Z,1.50
2023-05-10T18:36:57.950Z,1.90
2023-05-10T18:39:25.169Z,1.70
2023-05-10T18:41:52.002Z,2.50
2023-05-10T18:44:19.507Z,2.43
2023-05-10T18:46:46.489Z,2.00
2023-05-10T18:49:13.471Z,1.87
2023-05-10T18:51:40.349Z,2.10
2023-05-10T18:54:07.584Z,2.00
2023-05-10T18:56:34.385Z,1.93
2023-05-10T18:59:01.346Z,1.70
2023-05-10T19:01:28.170Z,1.93
2023-05-10T19:03:54.974Z,1.80
2023-05-10T19:06:21.704Z,2.43
2023-05-10T19:08:48.398Z,1.73
2023-05-10T19:11:15.111Z,2.00
2023-05-10T19:13:41.944Z,2.60
2023-05-10T19:16:14.279Z,1.97
2023-05-10T19:18:44.801Z,2.07
2023-05-10T19:21:11.703Z,1.73
2023-05-10T19:23:43.217Z,1.90
2023-05-10T19:26:11.331Z,1.90
2023-05-10T19:28:38.228Z,1.90
2023-05-10T19:31:06.097Z,1.97
2023-05-10T19:33:33.115Z,1.60
2023-05-10T19:35:59.773Z,1.90
2023-05-10T19:38:26.630Z,2.00
2023-05-10T19:40:58.372Z,2.07
2023-05-10T19:43:32.173Z,2.03
2023-05-10T19:46:02.197Z,2.00
2023-05-10T19:48:29.474Z,2.20
2023-05-10T19:51:01.847Z,2.03
2023-05-10T19:53:29.080Z,1.77
2023-05-10T19:55:56.738Z,1.93
2023-05-10T19:58:23.815Z,1.90
2023-05-10T20:00:50.718Z,2.10
2023-05-10T20:03:17.438Z,2.03
2023-05-10T20:05:44.161Z,2.13
2023-05-10T20:08:11.097Z,2.00
2023-05-10T20:10:37.831Z,2.10
2023-05-10T20:13:04.689Z,1.90
2023-05-10T20:15:31.731Z,2.03
2023-05-10T20:17:58.650Z,1.73
2023-05-10T20:20:25.441Z,2.23
2023-05-10T20:22:52.527Z,1.93
2023-05-10T20:25:19.566Z,1.93
2023-05-10T20:27:46.387Z,2.07
2023-05-10T20:30:13.834Z,2.43
2023-05-10T20:32:40.705Z,1.87
2023-05-10T20:35:07.753Z,1.83
2023-05-10T20:37:34.469Z,2.20
2023-05-10T20:40:01.337Z,2.17
2023-05-10T20:42:28.038Z,1.90
2023-05-10T20:44:54.811Z,2.27
2023-05-10T20:47:23.583Z,2.10
2023-05-10T20:49:50.782Z,2.13
2023-05-10T20:52:17.615Z,2.60
2023-05-10T20:54:44.325Z,2.27
2023-05-10T20:57:13.048Z,2.20
2023-05-10T20:59:39.750Z,2.50
2023-05-10T21:02:07.206Z,2.60
2023-05-10T21:04:34.253Z,2.00
2023-05-10T21:07:01.125Z,2.37
2023-05-10T21:09:27.824Z,2.60
2023-05-10T21:11:54.593Z,2.20
2023-05-10T21:14:21.339Z,2.20
2023-05-10T21:16:48.135Z,2.47
2023-05-10T21:19:14.859Z,2.00
2023-05-10T21:21:41.659Z,2.40
2023-05-10T21:24:08.403Z,2.60
2023-05-10T21:26:35.262Z,2.23
2023-05-10T21:29:02.044Z,2.10
2023-05-10T21:31:29.672Z,2.20
2023-05-10T21:33:57.313Z,2.10
2023-05-10T21:36:25.327Z,2.37
2023-05-10T21:38:52.053Z,2.07
2023-05-10T21:41:18.873Z,2.23
2023-05-10T21:43:45.651Z,2.33
2023-05-10T21:46:13.630Z,2.10
2023-05-10T21:48:40.362Z,2.27
2023-05-10T21:51:07.388Z,2.40
2023-05-10T21:53:37.526Z,2.60
2023-05-10T21:56:04.388Z,2.50
2023-05-10T21:58:31.298Z,2.10
2023-05-10T22:00:58.067Z,2.23
2023-05-10T22:03:25.089Z,1.97
2023-05-10T22:05:51.868Z,2.10
2023-05-10T22:08:18.594Z,2.20
2023-05-10T22:10:45.301Z,1.73
2023-05-10T22:13:12.247Z,1.90
2023-05-10T22:15:39.608Z,1.97
2023-05-10T22:18:06.590Z,2.43
2023-05-10T22:20:33.886Z,2.10
2023-05-10T22:23:01.130Z,2.27
2023-05-10T22:25:27.910Z,2.00
2023-05-10T22:27:54.617Z,2.23
2023-05-10T22:30:21.576Z,2.13
2023-05-10T22:32:48.982Z,1.80
2023-05-10T22:35:15.777Z,2.47
2023-05-10T22:37:42.519Z,1.87
2023-05-10T22:40:09.889Z,1.80
2023-05-10T22:42:36.621Z,2.33
2023-05-10T22:45:03.572Z,2.30
2023-05-10T22:47:30.399Z,2.00
2023-05-10T22:49:58.465Z,2.00
2023-05-10T22:52:25.251Z,2.23
2023-05-10T22:54:51.965Z,2.10
2023-05-10T22:57:18.942Z,2.33
2023-05-10T22:59:45.726Z,2.27
2023-05-10T23:02:14.364Z,2.00
2023-05-10T23:04:41.503Z,2.00
2023-05-10T23:07:08.313Z,2.20
2023-05-10T23:09:35.224Z,2.20
2023-05-10T23:12:02.526Z,2.40
2023-05-10T23:14:29.458Z,2.00
2023-05-10T23:16:56.264Z,2.33
2023-05-10T23:19:24.741Z,3.00
2023-05-10T23:21:51.506Z,2.10
2023-05-10T23:24:18.315Z,2.37
2023-05-10T23:26:46.623Z,2.17
2023-05-10T23:29:13.487Z,2.60
2023-05-10T23:31:45.573Z,2.97
2023-05-10T23:34:12.708Z,2.70
2023-05-10T23:36:39.604Z,2.80
2023-05-10T23:39:07.056Z,3.80
2023-05-10T23:41:34.353Z,3.13
2023-05-10T23:44:02.585Z,3.47
2023-05-10T23:46:29.444Z,4.20
2023-05-10T23:48:56.284Z,3.50
2023-05-10T23:51:23.123Z,3.40
2023-05-10T23:53:49.861Z,3.90
2023-05-10T23:56:16.631Z,3.93
2023-05-10T23:58:43.370Z,3.50
